sensor_id;sensor_type;location;lat;lon;timestamp;temperature;humidity
16315;DHT22;8266;52.150;4.768;2024-01-10T00:02:19;-0.30;99.90
16315;DHT22;8266;52.150;4.768;2024-01-10T00:04:46;-0.30;99.90
16315;DHT22;8266;52.150;4.768;2024-01-10T00:07:13;-0.30;99.90
16315;DHT22;8266;52.150;4.768;2024-01-10T00:09:41;-0.30;99.90
16315;DHT22;8266;52.150;4.768;2024-01-10T00:12:09;-0.40;99.90
16315;DHT22;8266;52.150;4.768;2024-01-10T00:14:37;-0.40;99.90
16315;DHT22;8266;52.150;4.768;2024-01-10T00:17:04;-0.40;99.90
16315;DHT22;8266;52.150;4.768;2024-01-10T00:19:31;-0.40;99.90
16315;DHT22;8266;52.150;4.768;2024-01-10T00:21:58;-0.40;99.90
16315;DHT22;8266;52.150;4.768;2024-01-10T00:24:25;-0.40;99.90
16315;DHT22;8266;52.150;4.768;2024-01-10T00:26:53;-0.40;99.90
16315;DHT22;8266;52.150;4.768;2024-01-10T00:29:21;-0.40;99.90
16315;DHT22;8266;52.150;4.768;2024-01-10T00:31:49;-0.40;99.90
16315;DHT22;8266;52.150;4.768;2024-01-10T00:34:18;-0.40;99.90
16315;DHT22;8266;52.150;4.768;2024-01-10T00:36:45;-0.30;99.90
16315;DHT22;8266;52.150;4.768;2024-01-10T00:39:12;-0.40;99.90
16315;DHT22;8266;52.150;4.768;2024-01-10T00:41:41;-0.40;99.90
16315;DHT22;8266;52.150;4.768;2024-01-10T00:44:08;-0.40;99.90
16315;DHT22;8266;52.150;4.768;2024-01-10T00:46:35;-0.30;99.90
16315;DHT22;8266;52.150;4.768;2024-01-10T00:49:03;-0.30;99.90
16315;DHT22;8266;52.150;4.768;2024-01-10T00:51:30;-0.40;99.90
16315;DHT22;8266;52.150;4.768;2024-01-10T00:54:00;-0.30;99.90
16315;DHT22;8266;52.150;4.768;2024-01-10T00:56:27;-0.40;99.90
16315;DHT22;8266;52.150;4.768;2024-01-10T00:58:54;-0.40;99.90
16315;DHT22;8266;52.150;4.768;2024-01-10T01:01:23;-0.40;99.90
16315;DHT22;8266;52.150;4.768;2024-01-10T01:03:51;-0.40;99.90
16315;DHT22;8266;52.150;4.768;2024-01-10T01:06:21;-0.40;99.90
16315;DHT22;8266;52.150;4.768;2024-01-10T01:08:51;-0.30;99.90
16315;DHT22;8266;52.150;4.768;2024-01-10T01:11:18;-0.40;99.90
16315;DHT22;8266;52.150;4.768;2024-01-10T01:13:45;-0.40;99.90
16315;DHT22;8266;52.150;4.768;2024-01-10T01:16:12;-0.40;99.90
16315;DHT22;8266;52.150;4.768;2024-01-10T01:18:39;-0.40;99.90
16315;DHT22;8266;52.150;4.768;2024-01-10T01:21:08;-0.30;99.90
16315;DHT22;8266;52.150;4.768;2024-01-10T01:23:36;-0.40;99.90
16315;DHT22;8266;52.150;4.768;2024-01-10T01:26:04;-0.40;99.90
16315;DHT22;8266;52.150;4.768;2024-01-10T01:28:31;-0.40;99.90
16315;DHT22;8266;52.150;4.768;2024-01-10T01:30:58;-0.50;99.90
16315;DHT22;8266;52.150;4.768;2024-01-10T01:33:25;-0.50;99.90
16315;DHT22;8266;52.150;4.768;2024-01-10T01:35:52;-0.50;99.90
16315;DHT22;8266;52.150;4.768;2024-01-10T01:38:20;-0.50;99.90
16315;DHT22;8266;52.150;4.768;2024-01-10T01:40:48;-0.50;99.90
16315;DHT22;8266;52.150;4.768;2024-01-10T01:43:20;-0.50;99.90
16315;DHT22;8266;52.150;4.768;2024-01-10T01:45:51;-0.60;99.90
16315;DHT22;8266;52.150;4.768;2024-01-10T01:48:19;-0.60;99.90
16315;DHT22;8266;52.150;4.768;2024-01-10T01:50:50;-0.60;99.90
16315;DHT22;8266;52.150;4.768;2024-01-10T01:53:18;-0.50;99.90
16315;DHT22;8266;52.150;4.768;2024-01-10T01:55:45;-0.60;99.90
16315;DHT22;8266;52.150;4.768;2024-01-10T01:58:14;-0.60;99.90
16315;DHT22;8266;52.150;4.768;2024-01-10T02:00:44;-0.60;99.90
16315;DHT22;8266;52.150;4.768;2024-01-10T02:03:11;-0.70;99.90
16315;DHT22;8266;52.150;4.768;2024-01-10T02:05:39;-0.70;99.90
16315;DHT22;8266;52.150;4.768;2024-01-10T02:08:08;-0.70;99.90
16315;DHT22;8266;52.150;4.768;2024-01-10T02:10:35;-0.70;99.90
16315;DHT22;8266;52.150;4.768;2024-01-10T02:13:03;-0.80;99.90
16315;DHT22;8266;52.150;4.768;2024-01-10T02:15:32;-0.80;99.90
16315;DHT22;8266;52.150;4.768;2024-01-10T02:17:59;-0.80;99.90
16315;DHT22;8266;52.150;4.768;2024-01-10T02:20:26;-0.70;99.90
16315;DHT22;8266;52.150;4.768;2024-01-10T02:22:53;-0.80;99.90
16315;DHT22;8266;52.150;4.768;2024-01-10T02:25:22;-0.90;99.90
16315;DHT22;8266;52.150;4.768;2024-01-10T02:27:49;-0.90;99.90
16315;DHT22;8266;52.150;4.768;2024-01-10T02:30:16;-0.90;99.90
16315;DHT22;8266;52.150;4.768;2024-01-10T02:32:43;-0.90;99.90
16315;DHT22;8266;52.150;4.768;2024-01-10T02:35:12;-0.90;99.90
16315;DHT22;8266;52.150;4.768;2024-01-10T02:37:40;-0.90;99.90
16315;DHT22;8266;52.150;4.768;2024-01-10T02:40:08;-0.90;99.90
16315;DHT22;8266;52.150;4.768;2024-01-10T02:42:36;-1.00;99.90
16315;DHT22;8266;52.150;4.768;2024-01-10T02:45:04;-1.00;99.90
16315;DHT22;8266;52.150;4.768;2024-01-10T02:47:33;-0.90;99.90
16315;DHT22;8266;52.150;4.768;2024-01-10T02:50:00;-0.90;99.90
16315;DHT22;8266;52.150;4.768;2024-01-10T02:52:28;-0.90;99.90
16315;DHT22;8266;52.150;4.768;2024-01-10T02:54:58;-0.90;99.90
16315;DHT22;8266;52.150;4.768;2024-01-10T02:57:34;-0.90;99.90
16315;DHT22;8266;52.150;4.768;2024-01-10T03:00:16;-0.90;99.90
16315;DHT22;8266;52.150;4.768;2024-01-10T03:02:43;-0.90;99.90
16315;DHT22;8266;52.150;4.768;2024-01-10T03:05:13;-0.90;99.90
16315;DHT22;8266;52.150;4.768;2024-01-10T03:07:40;-0.90;99.90
16315;DHT22;8266;52.150;4.768;2024-01-10T03:10:11;-0.90;99.90
16315;DHT22;8266;52.150;4.768;2024-01-10T03:12:38;-0.90;99.90
16315;DHT22;8266;52.150;4.768;2024-01-10T03:15:06;-0.80;99.90
16315;DHT22;8266;52.150;4.768;2024-01-10T03:17:37;-0.90;99.90
16315;DHT22;8266;52.150;4.768;2024-01-10T03:20:11;-0.90;99.90
16315;DHT22;8266;52.150;4.768;2024-01-10T03:22:40;-0.90;99.90
16315;DHT22;8266;52.150;4.768;2024-01-10T03:25:08;-0.90;99.90
16315;DHT22;8266;52.150;4.768;2024-01-10T03:27:42;-0.90;99.90
16315;DHT22;8266;52.150;4.768;2024-01-10T03:30:13;-0.90;99.90
16315;DHT22;8266;52.150;4.768;2024-01-10T03:32:56;-0.90;99.90
16315;DHT22;8266;52.150;4.768;2024-01-10T03:35:25;-1.00;99.90
16315;DHT22;8266;52.150;4.768;2024-01-10T03:37:52;-0.90;99.90
16315;DHT22;8266;52.150;4.768;2024-01-10T03:40:20;-0.90;99.90
16315;DHT22;8266;52.150;4.768;2024-01-10T03:42:48;-0.90;99.90
16315;DHT22;8266;52.150;4.768;2024-01-10T03:45:15;-0.90;99.90
16315;DHT22;8266;52.150;4.768;2024-01-10T03:47:46;-0.90;99.90
16315;DHT22;8266;52.150;4.768;2024-01-10T03:50:17;-0.90;99.90
16315;DHT22;8266;52.150;4.768;2024-01-10T03:52:45;-0.90;99.90
16315;DHT22;8266;52.150;4.768;2024-01-10T03:55:13;-0.90;99.90
16315;DHT22;8266;52.150;4.768;2024-01-10T03:57:41;-0.90;99.90
16315;DHT22;8266;52.150;4.768;2024-01-10T04:00:08;-0.90;99.90
16315;DHT22;8266;52.150;4.768;2024-01-10T04:02:36;-0.90;99.90
16315;DHT22;8266;52.150;4.768;2024-01-10T04:05:07;-1.00;99.90
16315;DHT22;8266;52.150;4.768;2024-01-10T04:07:39;-0.90;99.90
16315;DHT22;8266;52.150;4.768;2024-01-10T04:10:09;-0.90;99.90
16315;DHT22;8266;52.150;4.768;2024-01-10T04:12:36;-1.00;99.90
16315;DHT22;8266;52.150;4.768;2024-01-10T04:15:05;-0.90;99.90
16315;DHT22;8266;52.150;4.768;2024-01-10T04:17:32;-1.00;99.90
16315;DHT22;8266;52.150;4.768;2024-01-10T04:19:59;-0.90;99.90
16315;DHT22;8266;52.150;4.768;2024-01-10T04:22:28;-0.90;99.90
16315;DHT22;8266;52.150;4.768;2024-01-10T04:24:57;-0.90;99.90
16315;DHT22;8266;52.150;4.768;2024-01-10T04:27:25;-1.00;99.90
16315;DHT22;8266;52.150;4.768;2024-01-10T04:29:52;-1.00;99.90
16315;DHT22;8266;52.150;4.768;2024-01-10T04:32:19;-1.00;99.90
16315;DHT22;8266;52.150;4.768;2024-01-10T04:34:47;-0.90;99.90
16315;DHT22;8266;52.150;4.768;2024-01-10T04:37:14;-1.00;99.90
16315;DHT22;8266;52.150;4.768;2024-01-10T04:39:43;-1.00;99.90
16315;DHT22;8266;52.150;4.768;2024-01-10T04:42:10;-1.00;99.90
16315;DHT22;8266;52.150;4.768;2024-01-10T04:44:37;-1.00;99.90
16315;DHT22;8266;52.150;4.768;2024-01-10T04:47:05;-1.00;99.90
16315;DHT22;8266;52.150;4.768;2024-01-10T04:49:33;-1.00;99.90
16315;DHT22;8266;52.150;4.768;2024-01-10T04:52:00;-1.00;99.90
16315;DHT22;8266;52.150;4.768;2024-01-10T04:54:28;-0.90;99.90
16315;DHT22;8266;52.150;4.768;2024-01-10T04:56:56;-1.10;99.90
16315;DHT22;8266;52.150;4.768;2024-01-10T04:59:23;-1.10;99.90
16315;DHT22;8266;52.150;4.768;2024-01-10T05:01:51;-1.10;99.90
16315;DHT22;8266;52.150;4.768;2024-01-10T05:04:18;-1.00;99.90
16315;DHT22;8266;52.150;4.768;2024-01-10T05:06:45;-1.00;99.90
16315;DHT22;8266;52.150;4.768;2024-01-10T05:09:12;-1.10;99.90
16315;DHT22;8266;52.150;4.768;2024-01-10T05:11:39;-1.10;99.90
16315;DHT22;8266;52.150;4.768;2024-01-10T05:14:08;-1.20;99.90
16315;DHT22;8266;52.150;4.768;2024-01-10T05:16:35;-1.20;99.90
16315;DHT22;8266;52.150;4.768;2024-01-10T05:19:02;-1.20;99.90
16315;DHT22;8266;52.150;4.768;2024-01-10T05:21:30;-1.20;99.90
16315;DHT22;8266;52.150;4.768;2024-01-10T05:23:57;-1.20;99.90
16315;DHT22;8266;52.150;4.768;2024-01-10T05:26:24;-1.30;99.90
16315;DHT22;8266;52.150;4.768;2024-01-10T05:28:52;-1.30;99.90
16315;DHT22;8266;52.150;4.768;2024-01-10T05:31:20;-1.30;99.90
16315;DHT22;8266;52.150;4.768;2024-01-10T05:33:47;-1.30;99.90
16315;DHT22;8266;52.150;4.768;2024-01-10T05:36:15;-1.30;99.90
16315;DHT22;8266;52.150;4.768;2024-01-10T05:38:43;-1.30;99.90
16315;DHT22;8266;52.150;4.768;2024-01-10T05:41:10;-1.20;99.90
16315;DHT22;8266;52.150;4.768;2024-01-10T05:43:37;-1.30;99.90
16315;DHT22;8266;52.150;4.768;2024-01-10T05:46:04;-1.30;99.90
16315;DHT22;8266;52.150;4.768;2024-01-10T05:48:33;-1.40;99.90
16315;DHT22;8266;52.150;4.768;2024-01-10T05:51:01;-1.30;99.90
16315;DHT22;8266;52.150;4.768;2024-01-10T05:53:28;-1.30;99.90
16315;DHT22;8266;52.150;4.768;2024-01-10T05:55:56;-1.40;99.90
16315;DHT22;8266;52.150;4.768;2024-01-10T05:58:23;-1.30;99.90
16315;DHT22;8266;52.150;4.768;2024-01-10T06:00:50;-1.20;99.90
16315;DHT22;8266;52.150;4.768;2024-01-10T06:03:17;-1.30;99.90
16315;DHT22;8266;52.150;4.768;2024-01-10T06:05:46;-1.20;99.90
16315;DHT22;8266;52.150;4.768;2024-01-10T06:08:13;-1.30;99.90
16315;DHT22;8266;52.150;4.768;2024-01-10T06:10:41;-1.30;99.90
16315;DHT22;8266;52.150;4.768;2024-01-10T06:13:08;-1.30;99.90
16315;DHT22;8266;52.150;4.768;2024-01-10T06:15:38;-1.30;99.90
16315;DHT22;8266;52.150;4.768;2024-01-10T06:18:05;-1.30;99.90
16315;DHT22;8266;52.150;4.768;2024-01-10T06:20:33;-1.20;99.90
16315;DHT22;8266;52.150;4.768;2024-01-10T06:23:05;-1.30;99.90
16315;DHT22;8266;52.150;4.768;2024-01-10T06:25:33;-1.30;99.90
16315;DHT22;8266;52.150;4.768;2024-01-10T06:28:02;-1.30;99.90
16315;DHT22;8266;52.150;4.768;2024-01-10T06:30:29;-1.20;99.90
16315;DHT22;8266;52.150;4.768;2024-01-10T06:32:57;-1.30;99.90
16315;DHT22;8266;52.150;4.768;2024-01-10T06:35:24;-1.20;99.90
16315;DHT22;8266;52.150;4.768;2024-01-10T06:37:51;-1.20;99.90
16315;DHT22;8266;52.150;4.768;2024-01-10T06:40:19;-1.20;99.90
16315;DHT22;8266;52.150;4.768;2024-01-10T06:42:47;-1.20;99.90
16315;DHT22;8266;52.150;4.768;2024-01-10T06:45:14;-1.20;99.90
16315;DHT22;8266;52.150;4.768;2024-01-10T06:47:41;-1.20;99.90
16315;DHT22;8266;52.150;4.768;2024-01-10T06:50:09;-1.20;99.90
16315;DHT22;8266;52.150;4.768;2024-01-10T06:52:36;-1.20;99.90
16315;DHT22;8266;52.150;4.768;2024-01-10T06:55:05;-1.20;99.90
16315;DHT22;8266;52.150;4.768;2024-01-10T06:57:33;-1.20;99.90
16315;DHT22;8266;52.150;4.768;2024-01-10T07:00:00;-1.20;99.90
16315;DHT22;8266;52.150;4.768;2024-01-10T07:02:29;-1.20;99.90
16315;DHT22;8266;52.150;4.768;2024-01-10T07:04:58;-1.10;99.90
16315;DHT22;8266;52.150;4.768;2024-01-10T07:07:25;-1.10;99.90
16315;DHT22;8266;52.150;4.768;2024-01-10T07:09:52;-1.10;99.90
16315;DHT22;8266;52.150;4.768;2024-01-10T07:12:19;-1.10;99.90
16315;DHT22;8266;52.150;4.768;2024-01-10T07:14:47;-1.10;99.90
16315;DHT22;8266;52.150;4.768;2024-01-10T07:17:14;-1.10;99.90
16315;DHT22;8266;52.150;4.768;2024-01-10T07:19:41;-1.10;99.90
16315;DHT22;8266;52.150;4.768;2024-01-10T07:22:09;-1.10;99.90
16315;DHT22;8266;52.150;4.768;2024-01-10T07:24:36;-1.10;99.90
16315;DHT22;8266;52.150;4.768;2024-01-10T07:27:04;-1.20;99.90
16315;DHT22;8266;52.150;4.768;2024-01-10T07:29:32;-1.20;99.90
16315;DHT22;8266;52.150;4.768;2024-01-10T07:32:00;-1.10;99.90
16315;DHT22;8266;52.150;4.768;2024-01-10T07:34:27;-1.20;99.90
16315;DHT22;8266;52.150;4.768;2024-01-10T07:36:54;-1.20;99.90
16315;DHT22;8266;52.150;4.768;2024-01-10T07:39:21;-1.20;99.90
16315;DHT22;8266;52.150;4.768;2024-01-10T07:41:49;-1.20;99.90
16315;DHT22;8266;52.150;4.768;2024-01-10T07:44:16;-1.20;99.90
16315;DHT22;8266;52.150;4.768;2024-01-10T07:46:44;-1.20;99.90
16315;DHT22;8266;52.150;4.768;2024-01-10T07:49:15;-1.30;99.90
16315;DHT22;8266;52.150;4.768;2024-01-10T07:51:43;-1.20;99.90
16315;DHT22;8266;52.150;4.768;2024-01-10T07:54:10;-1.10;99.90
16315;DHT22;8266;52.150;4.768;2024-01-10T07:56:37;-1.20;99.90
16315;DHT22;8266;52.150;4.768;2024-01-10T07:59:05;-1.20;99.90
16315;DHT22;8266;52.150;4.768;2024-01-10T08:01:32;-1.20;99.90
16315;DHT22;8266;52.150;4.768;2024-01-10T08:04:00;-1.20;99.90
16315;DHT22;8266;52.150;4.768;2024-01-10T08:06:29;-1.20;99.90
16315;DHT22;8266;52.150;4.768;2024-01-10T08:08:56;-1.20;99.90
16315;DHT22;8266;52.150;4.768;2024-01-10T08:11:23;-1.20;99.90
16315;DHT22;8266;52.150;4.768;2024-01-10T08:13:51;-1.20;99.90
16315;DHT22;8266;52.150;4.768;2024-01-10T08:16:20;-1.20;99.90
16315;DHT22;8266;52.150;4.768;2024-01-10T08:18:48;-1.20;99.90
16315;DHT22;8266;52.150;4.768;2024-01-10T08:21:15;-1.20;99.90
16315;DHT22;8266;52.150;4.768;2024-01-10T08:23:43;-1.20;99.90
16315;DHT22;8266;52.150;4.768;2024-01-10T08:26:10;-1.20;99.90
16315;DHT22;8266;52.150;4.768;2024-01-10T08:28:38;-1.10;99.90
16315;DHT22;8266;52.150;4.768;2024-01-10T08:31:07;-1.10;99.90
16315;DHT22;8266;52.150;4.768;2024-01-10T08:33:35;-1.10;99.90
16315;DHT22;8266;52.150;4.768;2024-01-10T08:36:02;-1.00;99.90
16315;DHT22;8266;52.150;4.768;2024-01-10T08:38:29;-1.00;99.90
16315;DHT22;8266;52.150;4.768;2024-01-10T08:40:58;-1.00;99.90
16315;DHT22;8266;52.150;4.768;2024-01-10T08:43:25;-1.00;99.90
16315;DHT22;8266;52.150;4.768;2024-01-10T08:45:52;-1.00;99.90
16315;DHT22;8266;52.150;4.768;2024-01-10T08:48:19;-1.00;99.90
16315;DHT22;8266;52.150;4.768;2024-01-10T08:50:46;-0.90;99.90
16315;DHT22;8266;52.150;4.768;2024-01-10T08:53:14;-0.90;99.90
16315;DHT22;8266;52.150;4.768;2024-01-10T08:55:41;-0.90;99.90
16315;DHT22;8266;52.150;4.768;2024-01-10T08:58:10;-0.90;99.90
16315;DHT22;8266;52.150;4.768;2024-01-10T09:00:37;-0.80;99.90
16315;DHT22;8266;52.150;4.768;2024-01-10T09:03:04;-0.80;99.90
16315;DHT22;8266;52.150;4.768;2024-01-10T09:05:31;-0.70;99.90
16315;DHT22;8266;52.150;4.768;2024-01-10T09:07:59;-0.50;99.90
16315;DHT22;8266;52.150;4.768;2024-01-10T09:10:26;-0.30;99.90
16315;DHT22;8266;52.150;4.768;2024-01-10T09:12:53;0.00;99.90
16315;DHT22;8266;52.150;4.768;2024-01-10T09:15:22;0.20;99.90
16315;DHT22;8266;52.150;4.768;2024-01-10T09:17:50;0.40;99.90
16315;DHT22;8266;52.150;4.768;2024-01-10T09:20:18;0.70;99.90
16315;DHT22;8266;52.150;4.768;2024-01-10T09:22:46;0.90;99.90
16315;DHT22;8266;52.150;4.768;2024-01-10T09:25:14;1.20;99.90
16315;DHT22;8266;52.150;4.768;2024-01-10T09:27:41;1.40;99.90
16315;DHT22;8266;52.150;4.768;2024-01-10T09:30:10;1.60;99.90
16315;DHT22;8266;52.150;4.768;2024-01-10T09:32:39;1.90;99.90
16315;DHT22;8266;52.150;4.768;2024-01-10T09:35:07;2.10;99.90
16315;DHT22;8266;52.150;4.768;2024-01-10T09:37:34;2.40;99.90
16315;DHT22;8266;52.150;4.768;2024-01-10T09:40:02;2.60;99.90
16315;DHT22;8266;52.150;4.768;2024-01-10T09:42:29;2.70;99.90
16315;DHT22;8266;52.150;4.768;2024-01-10T09:44:59;3.00;99.90
16315;DHT22;8266;52.150;4.768;2024-01-10T09:47:27;3.00;99.90
16315;DHT22;8266;52.150;4.768;2024-01-10T09:49:56;3.10;99.90
16315;DHT22;8266;52.150;4.768;2024-01-10T09:52:24;3.10;99.90
16315;DHT22;8266;52.150;4.768;2024-01-10T09:54:54;3.20;99.90
16315;DHT22;8266;52.150;4.768;2024-01-10T09:57:22;3.20;99.90
16315;DHT22;8266;52.150;4.768;2024-01-10T09:59:49;3.30;99.90
16315;DHT22;8266;52.150;4.768;2024-01-10T10:02:18;3.40;99.90
16315;DHT22;8266;52.150;4.768;2024-01-10T10:04:56;3.50;99.90
16315;DHT22;8266;52.150;4.768;2024-01-10T10:07:26;3.60;99.90
16315;DHT22;8266;52.150;4.768;2024-01-10T10:09:53;3.70;99.90
16315;DHT22;8266;52.150;4.768;2024-01-10T10:12:22;3.70;99.90
16315;DHT22;8266;52.150;4.768;2024-01-10T10:14:49;3.80;99.90
16315;DHT22;8266;52.150;4.768;2024-01-10T10:17:17;3.90;99.90
16315;DHT22;8266;52.150;4.768;2024-01-10T10:19:45;4.00;99.90
16315;DHT22;8266;52.150;4.768;2024-01-10T10:22:14;4.00;99.90
16315;DHT22;8266;52.150;4.768;2024-01-10T10:24:41;4.00;99.90
16315;DHT22;8266;52.150;4.768;2024-01-10T10:27:11;4.00;99.90
16315;DHT22;8266;52.150;4.768;2024-01-10T10:29:38;3.90;99.90
16315;DHT22;8266;52.150;4.768;2024-01-10T10:32:06;3.90;99.90
16315;DHT22;8266;52.150;4.768;2024-01-10T10:34:34;3.80;99.90
16315;DHT22;8266;52.150;4.768;2024-01-10T10:37:01;3.70;99.90
16315;DHT22;8266;52.150;4.768;2024-01-10T10:39:30;3.60;99.90
16315;DHT22;8266;52.150;4.768;2024-01-10T10:41:57;3.50;99.90
16315;DHT22;8266;52.150;4.768;2024-01-10T10:44:25;3.30;99.90
16315;DHT22;8266;52.150;4.768;2024-01-10T10:46:54;3.20;99.90
16315;DHT22;8266;52.150;4.768;2024-01-10T10:49:28;3.10;99.90
16315;DHT22;8266;52.150;4.768;2024-01-10T10:52:00;3.00;99.90
16315;DHT22;8266;52.150;4.768;2024-01-10T10:54:31;2.90;99.90
16315;DHT22;8266;52.150;4.768;2024-01-10T10:57:02;2.80;99.90
16315;DHT22;8266;52.150;4.768;2024-01-10T10:59:31;2.70;99.90
16315;DHT22;8266;52.150;4.768;2024-01-10T11:02:00;2.70;99.90
16315;DHT22;8266;52.150;4.768;2024-01-10T11:04:28;2.60;99.90
16315;DHT22;8266;52.150;4.768;2024-01-10T11:06:55;2.60;99.90
16315;DHT22;8266;52.150;4.768;2024-01-10T11:09:23;2.60;99.90
16315;DHT22;8266;52.150;4.768;2024-01-10T11:12:07;2.60;99.90
16315;DHT22;8266;52.150;4.768;2024-01-10T11:14:45;2.60;99.90
16315;DHT22;8266;52.150;4.768;2024-01-10T11:17:44;2.60;99.90
16315;DHT22;8266;52.150;4.768;2024-01-10T11:23:38;2.70;99.90
16315;DHT22;8266;52.150;4.768;2024-01-10T11:26:07;2.70;99.90
16315;DHT22;8266;52.150;4.768;2024-01-10T11:28:37;2.80;99.90
16315;DHT22;8266;52.150;4.768;2024-01-10T11:31:06;2.80;99.90
16315;DHT22;8266;52.150;4.768;2024-01-10T11:33:35;2.80;99.90
16315;DHT22;8266;52.150;4.768;2024-01-10T11:36:09;2.80;99.90
16315;DHT22;8266;52.150;4.768;2024-01-10T11:38:41;2.90;99.90
16315;DHT22;8266;52.150;4.768;2024-01-10T11:41:11;2.90;99.90
16315;DHT22;8266;52.150;4.768;2024-01-10T11:43:40;3.00;99.90
16315;DHT22;8266;52.150;4.768;2024-01-10T11:46:07;3.00;99.90
16315;DHT22;8266;52.150;4.768;2024-01-10T11:48:37;3.00;99.90
16315;DHT22;8266;52.150;4.768;2024-01-10T11:51:04;3.10;99.90
16315;DHT22;8266;52.150;4.768;2024-01-10T11:53:39;3.10;99.90
16315;DHT22;8266;52.150;4.768;2024-01-10T11:56:11;3.20;99.90
16315;DHT22;8266;52.150;4.768;2024-01-10T11:58:55;3.20;99.90
16315;DHT22;8266;52.150;4.768;2024-01-10T12:01:22;3.20;99.90
16315;DHT22;8266;52.150;4.768;2024-01-10T12:03:51;3.30;99.90
16315;DHT22;8266;52.150;4.768;2024-01-10T12:06:21;3.30;99.90
16315;DHT22;8266;52.150;4.768;2024-01-10T12:08:48;3.30;99.90
16315;DHT22;8266;52.150;4.768;2024-01-10T12:11:16;3.30;99.90
16315;DHT22;8266;52.150;4.768;2024-01-10T12:13:43;3.30;99.90
16315;DHT22;8266;52.150;4.768;2024-01-10T12:16:12;3.40;99.90
16315;DHT22;8266;52.150;4.768;2024-01-10T12:18:39;3.40;99.90
16315;DHT22;8266;52.150;4.768;2024-01-10T12:21:07;3.40;99.90
16315;DHT22;8266;52.150;4.768;2024-01-10T12:23:36;3.40;99.90
16315;DHT22;8266;52.150;4.768;2024-01-10T12:26:09;3.40;99.90
16315;DHT22;8266;52.150;4.768;2024-01-10T12:28:38;3.50;99.90
16315;DHT22;8266;52.150;4.768;2024-01-10T12:31:06;3.50;99.90
16315;DHT22;8266;52.150;4.768;2024-01-10T12:33:36;3.40;99.90
16315;DHT22;8266;52.150;4.768;2024-01-10T12:36:07;3.40;99.90
16315;DHT22;8266;52.150;4.768;2024-01-10T12:38:35;3.40;99.90
16315;DHT22;8266;52.150;4.768;2024-01-10T12:41:03;3.50;99.90
16315;DHT22;8266;52.150;4.768;2024-01-10T12:43:31;3.50;99.90
16315;DHT22;8266;52.150;4.768;2024-01-10T12:46:05;3.50;99.90
16315;DHT22;8266;52.150;4.768;2024-01-10T12:48:34;3.40;99.90
16315;DHT22;8266;52.150;4.768;2024-01-10T12:51:03;3.50;99.90
16315;DHT22;8266;52.150;4.768;2024-01-10T12:53:34;3.40;99.90
16315;DHT22;8266;52.150;4.768;2024-01-10T12:56:01;3.40;99.90
16315;DHT22;8266;52.150;4.768;2024-01-10T12:58:29;3.40;99.90
16315;DHT22;8266;52.150;4.768;2024-01-10T13:00:56;3.50;99.90
16315;DHT22;8266;52.150;4.768;2024-01-10T13:03:23;3.40;99.90
16315;DHT22;8266;52.150;4.768;2024-01-10T13:05:52;3.40;99.90
16315;DHT22;8266;52.150;4.768;2024-01-10T13:08:19;3.40;99.90
16315;DHT22;8266;52.150;4.768;2024-01-10T13:10:47;3.50;99.90
16315;DHT22;8266;52.150;4.768;2024-01-10T13:13:14;3.50;99.90
16315;DHT22;8266;52.150;4.768;2024-01-10T13:15:43;3.50;99.90
16315;DHT22;8266;52.150;4.768;2024-01-10T13:18:11;3.50;99.90
16315;DHT22;8266;52.150;4.768;2024-01-10T13:20:39;3.50;99.90
16315;DHT22;8266;52.150;4.768;2024-01-10T13:23:07;3.50;99.90
16315;DHT22;8266;52.150;4.768;2024-01-10T13:25:34;3.50;99.90
16315;DHT22;8266;52.150;4.768;2024-01-10T13:28:03;3.50;99.90
16315;DHT22;8266;52.150;4.768;2024-01-10T13:30:30;3.60;99.90
16315;DHT22;8266;52.150;4.768;2024-01-10T13:32:57;3.60;99.90
16315;DHT22;8266;52.150;4.768;2024-01-10T13:35:25;3.60;99.90
16315;DHT22;8266;52.150;4.768;2024-01-10T13:37:52;3.70;99.90
16315;DHT22;8266;52.150;4.768;2024-01-10T13:40:21;3.80;99.90
16315;DHT22;8266;52.150;4.768;2024-01-10T13:42:49;3.90;99.90
16315;DHT22;8266;52.150;4.768;2024-01-10T13:45:17;3.90;99.90
16315;DHT22;8266;52.150;4.768;2024-01-10T13:47:44;4.00;99.90
16315;DHT22;8266;52.150;4.768;2024-01-10T13:50:11;4.00;99.90
16315;DHT22;8266;52.150;4.768;2024-01-10T13:52:39;4.00;99.90
16315;DHT22;8266;52.150;4.768;2024-01-10T13:55:06;4.00;99.90
16315;DHT22;8266;52.150;4.768;2024-01-10T13:57:36;4.00;99.90
16315;DHT22;8266;52.150;4.768;2024-01-10T14:00:05;4.00;99.90
16315;DHT22;8266;52.150;4.768;2024-01-10T14:02:33;4.00;99.90
16315;DHT22;8266;52.150;4.768;2024-01-10T14:05:01;4.00;99.90
16315;DHT22;8266;52.150;4.768;2024-01-10T14:07:31;3.90;99.90
16315;DHT22;8266;52.150;4.768;2024-01-10T14:09:59;3.90;99.90
16315;DHT22;8266;52.150;4.768;2024-01-10T14:12:27;3.90;99.90
16315;DHT22;8266;52.150;4.768;2024-01-10T14:14:56;3.90;99.90
16315;DHT22;8266;52.150;4.768;2024-01-10T14:17:25;3.90;99.90
16315;DHT22;8266;52.150;4.768;2024-01-10T14:19:52;3.90;99.90
16315;DHT22;8266;52.150;4.768;2024-01-10T14:22:19;3.80;99.90
16315;DHT22;8266;52.150;4.768;2024-01-10T14:24:48;3.80;99.90
16315;DHT22;8266;52.150;4.768;2024-01-10T14:27:16;3.80;99.90
16315;DHT22;8266;52.150;4.768;2024-01-10T14:29:43;3.80;99.90
16315;DHT22;8266;52.150;4.768;2024-01-10T14:32:11;3.90;99.90
16315;DHT22;8266;52.150;4.768;2024-01-10T14:34:39;3.80;99.90
16315;DHT22;8266;52.150;4.768;2024-01-10T14:37:07;3.80;99.90
16315;DHT22;8266;52.150;4.768;2024-01-10T14:39:34;3.80;99.90
16315;DHT22;8266;52.150;4.768;2024-01-10T14:42:05;3.90;99.90
16315;DHT22;8266;52.150;4.768;2024-01-10T14:44:33;3.80;99.90
16315;DHT22;8266;52.150;4.768;2024-01-10T14:47:00;3.80;99.90
16315;DHT22;8266;52.150;4.768;2024-01-10T14:49:30;3.80;99.90
16315;DHT22;8266;52.150;4.768;2024-01-10T14:51:57;3.70;99.90
16315;DHT22;8266;52.150;4.768;2024-01-10T14:54:24;3.60;99.90
16315;DHT22;8266;52.150;4.768;2024-01-10T14:56:51;3.60;99.90
16315;DHT22;8266;52.150;4.768;2024-01-10T14:59:19;3.50;99.90
16315;DHT22;8266;52.150;4.768;2024-01-10T15:01:46;3.50;99.90
16315;DHT22;8266;52.150;4.768;2024-01-10T15:04:13;3.50;99.90
16315;DHT22;8266;52.150;4.768;2024-01-10T15:06:45;3.40;99.90
16315;DHT22;8266;52.150;4.768;2024-01-10T15:09:13;3.40;99.90
16315;DHT22;8266;52.150;4.768;2024-01-10T15:11:41;3.40;99.90
16315;DHT22;8266;52.150;4.768;2024-01-10T15:14:08;3.30;99.90
16315;DHT22;8266;52.150;4.768;2024-01-10T15:16:36;3.20;99.90
16315;DHT22;8266;52.150;4.768;2024-01-10T15:19:03;3.20;99.90
16315;DHT22;8266;52.150;4.768;2024-01-10T15:21:30;3.20;99.90
16315;DHT22;8266;52.150;4.768;2024-01-10T15:23:58;3.10;99.90
16315;DHT22;8266;52.150;4.768;2024-01-10T15:26:25;3.10;99.90
16315;DHT22;8266;52.150;4.768;2024-01-10T15:28:53;3.00;99.90
16315;DHT22;8266;52.150;4.768;2024-01-10T15:31:21;3.00;99.90
16315;DHT22;8266;52.150;4.768;2024-01-10T15:33:49;3.00;99.90
16315;DHT22;8266;52.150;4.768;2024-01-10T15:36:16;2.90;99.90
16315;DHT22;8266;52.150;4.768;2024-01-10T15:38:43;2.90;99.90
16315;DHT22;8266;52.150;4.768;2024-01-10T15:41:12;2.80;99.90
16315;DHT22;8266;52.150;4.768;2024-01-10T15:43:39;2.80;99.90
16315;DHT22;8266;52.150;4.768;2024-01-10T15:46:06;2.80;99.90
16315;DHT22;8266;52.150;4.768;2024-01-10T15:48:33;2.70;99.90
16315;DHT22;8266;52.150;4.768;2024-01-10T15:51:00;2.70;99.90
16315;DHT22;8266;52.150;4.768;2024-01-10T15:53:27;2.70;99.90
16315;DHT22;8266;52.150;4.768;2024-01-10T15:55:57;2.60;99.90
16315;DHT22;8266;52.150;4.768;2024-01-10T15:58:25;2.60;99.90
16315;DHT22;8266;52.150;4.768;2024-01-10T16:00:52;2.60;99.90
16315;DHT22;8266;52.150;4.768;2024-01-10T16:03:19;2.50;99.90